sensor_id;sensor_type;location;lat;lon;timestamp;pressure;altitude;pressure_sealevel;temperature;humidity
21086;BME280;34247;50.064;19.970;2023-05-25T00:00:30;99743.97;;;16.17;86.42
21086;BME280;34247;50.064;19.970;2023-05-25T00:02:24;99744.09;;;16.15;86.43
21086;BME280;34247;50.064;19.970;2023-05-25T00:04:24;99744.34;;;16.12;86.72
21086;BME280;34247;50.064;19.970;2023-05-25T00:06:22;99739.25;;;16.09;86.72
21086;BME280;34247;50.064;19.970;2023-05-25T00:08:20;99739.25;;;16.09;86.66
21086;BME280;34247;50.064;19.970;2023-05-25T00:10:14;99737.28;;;16.11;86.83
21086;BME280;34247;50.064;19.970;2023-05-25T00:12:06;99735.47;;;16.12;86.95
21086;BME280;34247;50.064;19.970;2023-05-25T00:13:59;99740.69;;;16.13;86.72
21086;BME280;34247;50.064;19.970;2023-05-25T00:15:50;99741.66;;;16.12;86.67
21086;BME280;34247;50.064;19.970;2023-05-25T00:17:45;99735.31;;;16.13;86.73
21086;BME280;34247;50.064;19.970;2023-05-25T00:19:39;99747.03;;;16.12;86.83
21086;BME280;34247;50.064;19.970;2023-05-25T00:21:36;99743.50;;;16.12;86.78
21086;BME280;34247;50.064;19.970;2023-05-25T00:23:31;99749.13;;;16.09;86.97
21086;BME280;34247;50.064;19.970;2023-05-25T00:25:27;99748.28;;;16.08;86.82
21086;BME280;34247;50.064;19.970;2023-05-25T00:27:19;99746.94;;;16.03;87.05
21086;BME280;34247;50.064;19.970;2023-05-25T00:29:12;99746.34;;;15.99;87.25
21086;BME280;34247;50.064;19.970;2023-05-25T00:31:03;99748.44;;;15.95;87.20
21086;BME280;34247;50.064;19.970;2023-05-25T00:33:02;99752.09;;;15.94;87.33
21086;BME280;34247;50.064;19.970;2023-05-25T00:34:57;99746.97;;;15.91;87.69
21086;BME280;34247;50.064;19.970;2023-05-25T00:36:48;99746.13;;;15.91;87.58
21086;BME280;34247;50.064;19.970;2023-05-25T00:38:40;99745.16;;;15.92;87.47
21086;BME280;34247;50.064;19.970;2023-05-25T00:40:30;99756.84;;;15.91;87.60
21086;BME280;34247;50.064;19.970;2023-05-25T00:42:26;99757.56;;;15.93;87.71
21086;BME280;34247;50.064;19.970;2023-05-25T00:44:17;99759.28;;;15.94;87.65
21086;BME280;34247;50.064;19.970;2023-05-25T00:46:16;99758.53;;;15.92;87.81
21086;BME280;34247;50.064;19.970;2023-05-25T00:48:14;99756.84;;;15.91;87.73
21086;BME280;34247;50.064;19.970;2023-05-25T00:50:14;99760.50;;;15.90;87.91
21086;BME280;34247;50.064;19.970;2023-05-25T00:52:07;99758.81;;;15.89;87.92
21086;BME280;34247;50.064;19.970;2023-05-25T00:54:03;99763.03;;;15.91;87.72
21086;BME280;34247;50.064;19.970;2023-05-25T00:56:37;99755.16;;;15.90;87.91
21086;BME280;34247;50.064;19.970;2023-05-25T00:58:33;99755.16;;;15.90;87.78
21086;BME280;34247;50.064;19.970;2023-05-25T01:00:51;99758.81;;;15.89;87.86
21086;BME280;34247;50.064;19.970;2023-05-25T01:02:54;99758.19;;;15.85;87.94
21086;BME280;34247;50.064;19.970;2023-05-25T01:04:52;99756.75;;;15.81;88.15
21086;BME280;34247;50.064;19.970;2023-05-25T01:06:49;99768.44;;;15.80;88.41
21086;BME280;34247;50.064;19.970;2023-05-25T01:08:46;99763.19;;;15.79;88.41
21086;BME280;34247;50.064;19.970;2023-05-25T01:10:41;99757.13;;;15.77;88.51
21086;BME280;34247;50.064;19.970;2023-05-25T01:12:41;99753.59;;;15.76;88.47
21086;BME280;34247;50.064;19.970;2023-05-25T01:14:34;99760.06;;;15.74;88.58
21086;BME280;34247;50.064;19.970;2023-05-25T01:16:28;99755.22;;;15.67;88.65
21086;BME280;34247;50.064;19.970;2023-05-25T01:18:19;99755.34;;;15.66;89.01
21086;BME280;34247;50.064;19.970;2023-05-25T01:20:10;99757.19;;;15.65;89.02
21086;BME280;34247;50.064;19.970;2023-05-25T01:22:20;99752.69;;;15.66;88.98
21086;BME280;34247;50.064;19.970;2023-05-25T01:24:46;99755.22;;;15.67;89.17
21086;BME280;34247;50.064;19.970;2023-05-25T01:26:46;99752.69;;;15.66;89.17
21086;BME280;34247;50.064;19.970;2023-05-25T01:28:46;99758.16;;;15.64;88.91
21086;BME280;34247;50.064;19.970;2023-05-25T01:30:51;99756.56;;;15.62;89.30
21086;BME280;34247;50.064;19.970;2023-05-25T01:32:44;99752.91;;;15.63;89.52
21086;BME280;34247;50.064;19.970;2023-05-25T01:34:37;99750.22;;;15.63;89.55
21086;BME280;34247;50.064;19.970;2023-05-25T01:36:35;99750.38;;;15.61;89.48
21086;BME280;34247;50.064;19.970;2023-05-25T01:38:26;99754.84;;;15.61;89.53
21086;BME280;34247;50.064;19.970;2023-05-25T01:40:18;99753.97;;;15.60;89.79
21086;BME280;34247;50.064;19.970;2023-05-25T01:42:09;99754.97;;;15.59;89.60
21086;BME280;34247;50.064;19.970;2023-05-25T01:44:05;99758.63;;;15.58;89.84
21086;BME280;34247;50.064;19.970;2023-05-25T01:46:34;99757.88;;;15.56;89.82
21086;BME280;34247;50.064;19.970;2023-05-25T01:48:53;99764.34;;;15.54;90.08
21086;BME280;34247;50.064;19.970;2023-05-25T01:51:01;99765.44;;;15.51;90.16
21086;BME280;34247;50.064;19.970;2023-05-25T01:53:03;99756.56;;;15.51;90.23
21086;BME280;34247;50.064;19.970;2023-05-25T01:55:11;99754.75;;;15.51;90.27
21086;BME280;34247;50.064;19.970;2023-05-25T01:57:13;99754.59;;;15.53;90.51
21086;BME280;34247;50.064;19.970;2023-05-25T01:59:14;99761.78;;;15.52;90.38
21086;BME280;34247;50.064;19.970;2023-05-25T02:01:16;99758.41;;;15.50;90.73
21086;BME280;34247;50.064;19.970;2023-05-25T02:03:08;99766.53;;;15.49;90.80
21086;BME280;34247;50.064;19.970;2023-05-25T02:05:00;99758.50;;;15.49;90.80
21086;BME280;34247;50.064;19.970;2023-05-25T02:06:51;99763.84;;;15.49;91.12
21086;BME280;34247;50.064;19.970;2023-05-25T02:08:43;99763.13;;;15.47;91.16
21086;BME280;34247;50.064;19.970;2023-05-25T02:10:42;99758.28;;;15.40;91.31
21086;BME280;34247;50.064;19.970;2023-05-25T02:12:34;99762.78;;;15.40;91.49
21086;BME280;34247;50.064;19.970;2023-05-25T02:14:26;99757.44;;;15.40;91.81
21086;BME280;34247;50.064;19.970;2023-05-25T02:16:23;99760.94;;;15.40;91.67
21086;BME280;34247;50.064;19.970;2023-05-25T02:18:18;99755.72;;;15.39;91.72
21086;BME280;34247;50.064;19.970;2023-05-25T02:20:13;99756.00;;;15.36;91.79
21086;BME280;34247;50.064;19.970;2023-05-25T02:22:07;99762.41;;;15.33;92.27
21086;BME280;34247;50.064;19.970;2023-05-25T02:24:00;99749.88;;;15.34;92.30
21086;BME280;34247;50.064;19.970;2023-05-25T02:25:55;99742.63;;;15.36;92.22
21086;BME280;34247;50.064;19.970;2023-05-25T02:27:46;99748.91;;;15.35;92.39
21086;BME280;34247;50.064;19.970;2023-05-25T02:29:41;99744.41;;;15.35;92.35
21086;BME280;34247;50.064;19.970;2023-05-25T02:31:32;99742.13;;;15.31;92.35
21086;BME280;34247;50.064;19.970;2023-05-25T02:33:27;99742.13;;;15.31;92.34
21086;BME280;34247;50.064;19.970;2023-05-25T02:35:23;99739.44;;;15.31;92.33
21086;BME280;34247;50.064;19.970;2023-05-25T02:37:14;99735.09;;;15.30;92.31
21086;BME280;34247;50.064;19.970;2023-05-25T02:39:16;99746.84;;;15.27;92.28
21086;BME280;34247;50.064;19.970;2023-05-25T02:41:09;99742.63;;;15.25;92.71
21086;BME280;34247;50.064;19.970;2023-05-25T02:43:01;99745.53;;;15.22;92.46
21086;BME280;34247;50.064;19.970;2023-05-25T02:45:19;99748.31;;;15.20;92.48
21086;BME280;34247;50.064;19.970;2023-05-25T02:47:11;99746.03;;;15.15;92.75
21086;BME280;34247;50.064;19.970;2023-05-25T02:49:25;99749.56;;;15.16;92.59
21086;BME280;34247;50.064;19.970;2023-05-25T02:51:16;99745.06;;;15.16;92.54
21086;BME280;34247;50.064;19.970;2023-05-25T02:53:07;99747.00;;;15.14;92.48
21086;BME280;34247;50.064;19.970;2023-05-25T02:55:11;99745.53;;;15.10;92.67
21086;BME280;34247;50.064;19.970;2023-05-25T02:57:09;99748.09;;;15.12;92.84
21086;BME280;34247;50.064;19.970;2023-05-25T02:59:09;99740.81;;;15.14;92.75
21086;BME280;34247;50.064;19.970;2023-05-25T03:01:00;99745.91;;;15.17;92.47
21086;BME280;34247;50.064;19.970;2023-05-25T03:02:52;99745.91;;;15.17;92.43
21086;BME280;34247;50.064;19.970;2023-05-25T03:04:48;99744.44;;;15.13;92.30
21086;BME280;34247;50.064;19.970;2023-05-25T03:06:40;99743.59;;;15.12;92.51
21086;BME280;34247;50.064;19.970;2023-05-25T03:08:33;99740.44;;;15.07;92.69
21086;BME280;34247;50.064;19.970;2023-05-25T03:10:25;99739.59;;;15.07;93.13
21086;BME280;34247;50.064;19.970;2023-05-25T03:12:16;99738.50;;;15.09;92.93
21086;BME280;34247;50.064;19.970;2023-05-25T03:14:09;99745.19;;;15.15;92.90
21086;BME280;34247;50.064;19.970;2023-05-25T03:16:00;99746.16;;;15.14;92.75
21086;BME280;34247;50.064;19.970;2023-05-25T03:17:51;99742.50;;;15.15;92.98
21086;BME280;34247;50.064;19.970;2023-05-25T03:19:42;99745.06;;;15.16;92.94
21086;BME280;34247;50.064;19.970;2023-05-25T03:21:32;99748.72;;;15.15;92.95
21086;BME280;34247;50.064;19.970;2023-05-25T03:23:24;99753.94;;;15.17;92.96
21086;BME280;34247;50.064;19.970;2023-05-25T03:25:15;99751.25;;;15.17;92.93
21086;BME280;34247;50.064;19.970;2023-05-25T03:27:07;99753.06;;;15.16;92.91
21086;BME280;34247;50.064;19.970;2023-05-25T03:28:58;99755.50;;;15.20;92.97
21086;BME280;34247;50.064;19.970;2023-05-25T03:30:50;99755.50;;;15.20;92.89
21086;BME280;34247;50.064;19.970;2023-05-25T03:32:41;99759.88;;;15.21;92.82
21086;BME280;34247;50.064;19.970;2023-05-25T03:34:32;99769.00;;;15.18;92.81
21086;BME280;34247;50.064;19.970;2023-05-25T03:36:27;99767.16;;;15.18;92.85
21086;BME280;34247;50.064;19.970;2023-05-25T03:38:22;99768.88;;;15.20;93.28
21086;BME280;34247;50.064;19.970;2023-05-25T03:40:16;99765.97;;;15.23;93.23
21086;BME280;34247;50.064;19.970;2023-05-25T03:42:07;99757.69;;;15.26;92.90
21086;BME280;34247;50.064;19.970;2023-05-25T03:43:59;99760.47;;;15.24;92.79
21086;BME280;34247;50.064;19.970;2023-05-25T03:45:49;99758.91;;;15.22;92.76
21086;BME280;34247;50.064;19.970;2023-05-25T03:47:44;99760.63;;;15.23;92.88
21086;BME280;34247;50.064;19.970;2023-05-25T03:49:38;99766.94;;;15.22;92.90
21086;BME280;34247;50.064;19.970;2023-05-25T03:51:29;99763.66;;;15.18;92.93
21086;BME280;34247;50.064;19.970;2023-05-25T03:53:23;99770.81;;;15.17;93.00
21086;BME280;34247;50.064;19.970;2023-05-25T03:55:21;99768.50;;;15.13;93.31
21086;BME280;34247;50.064;19.970;2023-05-25T03:57:12;99768.63;;;15.11;93.45
21086;BME280;34247;50.064;19.970;2023-05-25T03:59:02;99777.63;;;15.10;93.64
21086;BME280;34247;50.064;19.970;2023-05-25T04:00:58;99778.59;;;15.09;93.47
21086;BME280;34247;50.064;19.970;2023-05-25T04:02:49;99780.56;;;15.07;93.77
21086;BME280;34247;50.064;19.970;2023-05-25T04:04:41;99782.25;;;15.08;93.78
21086;BME280;34247;50.064;19.970;2023-05-25T04:06:34;99783.81;;;15.11;93.86
21086;BME280;34247;50.064;19.970;2023-05-25T04:08:27;99785.50;;;15.12;94.00
21086;BME280;34247;50.064;19.970;2023-05-25T04:10:22;99788.56;;;15.07;93.71
21086;BME280;34247;50.064;19.970;2023-05-25T04:12:13;99790.75;;;15.02;94.14
21086;BME280;34247;50.064;19.970;2023-05-25T04:14:26;99793.56;;;15.01;94.38
21086;BME280;34247;50.064;19.970;2023-05-25T04:16:17;99789.06;;;15.01;94.63
21086;BME280;34247;50.064;19.970;2023-05-25T04:18:12;99793.28;;;15.04;94.76
21086;BME280;34247;50.064;19.970;2023-05-25T04:20:03;99794.66;;;15.09;94.31
21086;BME280;34247;50.064;19.970;2023-05-25T04:21:59;99797.06;;;15.12;94.25
21086;BME280;34247;50.064;19.970;2023-05-25T04:23:54;99794.16;;;15.15;94.17
21086;BME280;34247;50.064;19.970;2023-05-25T04:25:46;99793.19;;;15.16;93.86
21086;BME280;34247;50.064;19.970;2023-05-25T04:27:41;99788.56;;;15.18;93.63
21086;BME280;34247;50.064;19.970;2023-05-25T04:29:33;99790.25;;;15.20;93.64
21086;BME280;34247;50.064;19.970;2023-05-25T04:31:28;99796.22;;;15.23;93.49
21086;BME280;34247;50.064;19.970;2023-05-25T04:33:21;99800.72;;;15.23;93.41
21086;BME280;34247;50.064;19.970;2023-05-25T04:35:12;99797.06;;;15.24;93.64
21086;BME280;34247;50.064;19.970;2023-05-25T04:37:04;99799.63;;;15.25;93.47
21086;BME280;34247;50.064;19.970;2023-05-25T04:38:57;99807.78;;;15.24;93.84
21086;BME280;34247;50.064;19.970;2023-05-25T04:40:49;99807.78;;;15.24;93.74
21086;BME280;34247;50.064;19.970;2023-05-25T04:42:40;99798.06;;;15.23;93.78
21086;BME280;34247;50.064;19.970;2023-05-25T04:44:32;99808.00;;;15.21;93.99
21086;BME280;34247;50.064;19.970;2023-05-25T04:46:44;99806.44;;;15.18;94.38
21086;BME280;34247;50.064;19.970;2023-05-25T04:48:41;99809.34;;;15.15;94.60
21086;BME280;34247;50.064;19.970;2023-05-25T04:50:32;99810.44;;;15.12;94.61
21086;BME280;34247;50.064;19.970;2023-05-25T04:52:24;99809.44;;;15.13;94.82
21086;BME280;34247;50.064;19.970;2023-05-25T04:54:15;99817.97;;;15.18;94.81
21086;BME280;34247;50.064;19.970;2023-05-25T04:56:07;99815.06;;;15.22;94.51
21086;BME280;34247;50.064;19.970;2023-05-25T04:57:59;99812.41;;;15.22;94.18
21086;BME280;34247;50.064;19.970;2023-05-25T04:59:52;99815.56;;;15.15;94.38
21086;BME280;34247;50.064;19.970;2023-05-25T05:01:43;99818.22;;;15.15;94.43
21086;BME280;34247;50.064;19.970;2023-05-25T05:03:35;99812.75;;;15.17;94.83
21086;BME280;34247;50.064;19.970;2023-05-25T05:05:26;99824.78;;;15.23;94.67
21086;BME280;34247;50.064;19.970;2023-05-25T05:07:17;99828.44;;;15.22;94.52
21086;BME280;34247;50.064;19.970;2023-05-25T05:09:09;99825.78;;;15.22;94.27
21086;BME280;34247;50.064;19.970;2023-05-25T05:11:03;99823.94;;;15.22;94.15
21086;BME280;34247;50.064;19.970;2023-05-25T05:12:54;99827.69;;;15.20;94.05
21086;BME280;34247;50.064;19.970;2023-05-25T05:14:45;99836.69;;;15.18;94.06
21086;BME280;34247;50.064;19.970;2023-05-25T05:16:37;99839.50;;;15.17;94.04
21086;BME280;34247;50.064;19.970;2023-05-25T05:18:30;99842.03;;;15.18;93.99
21086;BME280;34247;50.064;19.970;2023-05-25T05:20:22;99842.88;;;15.19;94.41
21086;BME280;34247;50.064;19.970;2023-05-25T05:22:13;99844.59;;;15.20;94.05
21086;BME280;34247;50.064;19.970;2023-05-25T05:24:04;99838.28;;;15.21;93.91
21086;BME280;34247;50.064;19.970;2023-05-25T05:25:56;99841.56;;;15.25;93.79
21086;BME280;34247;50.064;19.970;2023-05-25T05:27:47;99849.84;;;15.22;93.54
21086;BME280;34247;50.064;19.970;2023-05-25T05:29:38;99844.38;;;15.23;93.60
21086;BME280;34247;50.064;19.970;2023-05-25T05:31:30;99847.41;;;15.30;93.27
21086;BME280;34247;50.064;19.970;2023-05-25T05:33:25;99845.81;;;15.38;92.78
21086;BME280;34247;50.064;19.970;2023-05-25T05:35:19;99850.31;;;15.38;92.25
21086;BME280;34247;50.064;19.970;2023-05-25T05:37:10;99858.34;;;15.38;91.96
21086;BME280;34247;50.064;19.970;2023-05-25T05:39:01;99855.69;;;15.38;91.47
21086;BME280;34247;50.064;19.970;2023-05-25T05:40:52;99855.91;;;15.35;91.46
21086;BME280;34247;50.064;19.970;2023-05-25T05:42:43;99854.81;;;15.37;91.34
21086;BME280;34247;50.064;19.970;2023-05-25T05:44:34;99854.56;;;15.40;91.15
21086;BME280;34247;50.064;19.970;2023-05-25T05:46:28;99846.66;;;15.39;90.88
21086;BME280;34247;50.064;19.970;2023-05-25T05:48:20;99850.91;;;15.41;90.84
21086;BME280;34247;50.064;19.970;2023-05-25T05:50:11;99850.69;;;15.44;90.70
21086;BME280;34247;50.064;19.970;2023-05-25T05:52:02;99855.66;;;15.49;90.34
21086;BME280;34247;50.064;19.970;2023-05-25T05:53:56;99850.94;;;15.53;90.01
21086;BME280;34247;50.064;19.970;2023-05-25T05:55:47;99851.53;;;15.56;89.54
21086;BME280;34247;50.064;19.970;2023-05-25T05:57:46;99854.72;;;15.61;89.14
21086;BME280;34247;50.064;19.970;2023-05-25T05:59:40;99855.34;;;15.65;88.79
21086;BME280;34247;50.064;19.970;2023-05-25T06:01:35;99854.22;;;15.67;88.49
21086;BME280;34247;50.064;19.970;2023-05-25T06:03:26;99858.25;;;15.73;88.22
21086;BME280;34247;50.064;19.970;2023-05-25T06:05:22;99856.16;;;15.77;87.75
21086;BME280;34247;50.064;19.970;2023-05-25T06:07:13;99859.81;;;15.76;87.66
21086;BME280;34247;50.064;19.970;2023-05-25T06:09:11;99857.28;;;15.74;87.56
21086;BME280;34247;50.064;19.970;2023-05-25T06:11:08;99868.97;;;15.73;87.72
21086;BME280;34247;50.064;19.970;2023-05-25T06:13:00;99863.81;;;15.70;87.53
21086;BME280;34247;50.064;19.970;2023-05-25T06:14:50;99870.16;;;15.69;87.60
21086;BME280;34247;50.064;19.970;2023-05-25T06:16:47;99870.53;;;15.64;87.39
21086;BME280;34247;50.064;19.970;2023-05-25T06:18:38;99874.16;;;15.63;87.91
21086;BME280;34247;50.064;19.970;2023-05-25T06:20:32;99878.56;;;15.64;87.80
21086;BME280;34247;50.064;19.970;2023-05-25T06:22:23;99876.00;;;15.63;87.82
21086;BME280;34247;50.064;19.970;2023-05-25T06:24:14;99881.47;;;15.61;87.85
21086;BME280;34247;50.064;19.970;2023-05-25T06:26:10;99883.53;;;15.58;87.84
21086;BME280;34247;50.064;19.970;2023-05-25T06:28:03;99889.97;;;15.55;87.92
21086;BME280;34247;50.064;19.970;2023-05-25T06:30:01;99889.25;;;15.53;88.07
21086;BME280;34247;50.064;19.970;2023-05-25T06:31:54;99891.91;;;15.53;88.20
21086;BME280;34247;50.064;19.970;2023-05-25T06:33:59;99881.47;;;15.50;88.36
21086;BME280;34247;50.064;19.970;2023-05-25T06:35:50;99892.03;;;15.52;88.30
21086;BME280;34247;50.064;19.970;2023-05-25T06:37:41;99897.13;;;15.55;88.29
21086;BME280;34247;50.064;19.970;2023-05-25T06:39:32;99896.16;;;15.56;88.14
21086;BME280;34247;50.064;19.970;2023-05-25T06:41:23;99897.25;;;15.53;88.15
21086;BME280;34247;50.064;19.970;2023-05-25T06:43:18;99900.78;;;15.54;88.58
21086;BME280;34247;50.064;19.970;2023-05-25T06:45:09;99907.63;;;15.58;88.37
21086;BME280;34247;50.064;19.970;2023-05-25T06:47:00;99896.66;;;15.61;88.44
21086;BME280;34247;50.064;19.970;2023-05-25T06:48:51;99891.44;;;15.59;88.40
21086;BME280;34247;50.064;19.970;2023-05-25T06:50:43;99902.97;;;15.60;88.35
21086;BME280;34247;50.064;19.970;2023-05-25T06:52:37;99896.16;;;15.56;88.42
21086;BME280;34247;50.064;19.970;2023-05-25T06:54:28;99899.59;;;15.58;88.49
21086;BME280;34247;50.064;19.970;2023-05-25T06:56:23;99885.44;;;15.56;88.47
21086;BME280;34247;50.064;19.970;2023-05-25T06:58:18;99897.84;;;15.57;88.82
21086;BME280;34247;50.064;19.970;2023-05-25T07:00:13;99898.84;;;15.56;88.45
21086;BME280;34247;50.064;19.970;2023-05-25T07:02:10;99906.84;;;15.56;88.61
21086;BME280;34247;50.064;19.970;2023-05-25T07:04:09;99899.09;;;15.53;88.72
21086;BME280;34247;50.064;19.970;2023-05-25T07:06:03;99903.94;;;15.48;88.66
21086;BME280;34247;50.064;19.970;2023-05-25T07:08:05;99907.72;;;15.45;88.69
21086;BME280;34247;50.064;19.970;2023-05-25T07:10:10;99913.06;;;15.45;88.64
21086;BME280;34247;50.064;19.970;2023-05-25T07:12:10;99913.56;;;15.50;88.53
21086;BME280;34247;50.064;19.970;2023-05-25T07:14:01;99914.41;;;15.51;88.34
21086;BME280;34247;50.064;19.970;2023-05-25T07:15:52;99907.97;;;15.53;88.20
21086;BME280;34247;50.064;19.970;2023-05-25T07:17:43;99917.56;;;15.56;88.03
21086;BME280;34247;50.064;19.970;2023-05-25T07:19:34;99916.50;;;15.58;87.80
21086;BME280;34247;50.064;19.970;2023-05-25T07:21:25;99918.81;;;15.63;87.56
21086;BME280;34247;50.064;19.970;2023-05-25T07:23:16;99920.41;;;15.65;87.62
21086;BME280;34247;50.064;19.970;2023-05-25T07:25:08;99914.81;;;15.68;87.58
21086;BME280;34247;50.064;19.970;2023-05-25T07:27:03;99912.75;;;15.72;87.20
21086;BME280;34247;50.064;19.970;2023-05-25T07:28:58;99912.13;;;15.68;87.23
21086;BME280;34247;50.064;19.970;2023-05-25T07:31:03;99909.31;;;15.70;87.30
21086;BME280;34247;50.064;19.970;2023-05-25T07:33:08;99911.38;;;15.78;87.26
21086;BME280;34247;50.064;19.970;2023-05-25T07:35:00;99908.09;;;15.85;86.97
21086;BME280;34247;50.064;19.970;2023-05-25T07:36:51;99914.56;;;15.94;86.76
21086;BME280;34247;50.064;19.970;2023-05-25T07:38:46;99915.03;;;15.99;86.41
21086;BME280;34247;50.064;19.970;2023-05-25T07:40:41;99917.22;;;16.05;86.03
21086;BME280;34247;50.064;19.970;2023-05-25T07:42:33;99916.44;;;16.14;85.97
21086;BME280;34247;50.064;19.970;2023-05-25T07:44:28;99918.63;;;16.20;85.42
21086;BME280;34247;50.064;19.970;2023-05-25T07:46:20;99917.41;;;16.24;85.07
21086;BME280;34247;50.064;19.970;2023-05-25T07:48:13;99915.31;;;16.28;84.93
21086;BME280;34247;50.064;19.970;2023-05-25T07:50:07;99915.31;;;16.28;84.75
21086;BME280;34247;50.064;19.970;2023-05-25T07:52:02;99908.28;;;16.27;84.66
21086;BME280;34247;50.064;19.970;2023-05-25T07:53:53;99915.81;;;16.22;84.71
21086;BME280;34247;50.064;19.970;2023-05-25T07:55:45;99918.78;;;16.19;84.77
21086;BME280;34247;50.064;19.970;2023-05-25T07:57:40;99915.25;;;16.18;84.69
21086;BME280;34247;50.064;19.970;2023-05-25T07:59:35;99914.53;;;16.16;84.71
21086;BME280;34247;50.064;19.970;2023-05-25T08:01:26;99917.31;;;16.15;84.71
21086;BME280;34247;50.064;19.970;2023-05-25T08:03:23;99923.75;;;16.23;84.67
21086;BME280;34247;50.064;19.970;2023-05-25T08:05:36;99921.66;;;16.27;84.66
21086;BME280;34247;50.064;19.970;2023-05-25T08:07:36;99924.13;;;16.30;84.31
21086;BME280;34247;50.064;19.970;2023-05-25T08:09:30;99909.88;;;16.30;84.18
21086;BME280;34247;50.064;19.970;2023-05-25T08:11:26;99911.56;;;16.31;84.18
21086;BME280;34247;50.064;19.970;2023-05-25T08:13:26;99918.63;;;16.32;83.80
21086;BME280;34247;50.064;19.970;2023-05-25T08:15:17;99914.47;;;16.27;83.54
21086;BME280;34247;50.064;19.970;2023-05-25T08:17:10;99916.44;;;16.25;83.71
21086;BME280;34247;50.064;19.970;2023-05-25T08:19:03;99926.53;;;16.33;83.70
21086;BME280;34247;50.064;19.970;2023-05-25T08:20:57;99915.19;;;16.41;83.44
21086;BME280;34247;50.064;19.970;2023-05-25T08:22:51;99915.66;;;16.46;83.20
21086;BME280;34247;50.064;19.970;2023-05-25T08:24:42;99919.06;;;16.48;83.18
21086;BME280;34247;50.064;19.970;2023-05-25T08:26:36;99919.19;;;16.46;82.94
21086;BME280;34247;50.064;19.970;2023-05-25T08:28:44;99917.50;;;16.45;83.07
21086;BME280;34247;50.064;19.970;2023-05-25T08:30:45;99913.31;;;16.52;82.98
21086;BME280;34247;50.064;19.970;2023-05-25T08:32:36;99917.56;;;16.55;82.71
21086;BME280;34247;50.064;19.970;2023-05-25T08:34:29;99921.72;;;16.59;82.50
21086;BME280;34247;50.064;19.970;2023-05-25T08:36:27;99922.28;;;16.63;82.26
21086;BME280;34247;50.064;19.970;2023-05-25T08:38:19;99918.50;;;16.65;82.23
21086;BME280;34247;50.064;19.970;2023-05-25T08:40:19;99917.16;;;16.71;82.00
21086;BME280;34247;50.064;19.970;2023-05-25T08:42:22;99924.84;;;16.75;81.64
21086;BME280;34247;50.064;19.970;2023-05-25T08:44:13;99919.72;;;16.72;81.60
21086;BME280;34247;50.064;19.970;2023-05-25T08:46:09;99917.78;;;16.74;81.72
21086;BME280;34247;50.064;19.970;2023-05-25T08:48:12;99920.78;;;16.81;81.53
21086;BME280;34247;50.064;19.970;2023-05-25T08:50:29;99908.81;;;16.85;81.45
21086;BME280;34247;50.064;19.970;2023-05-25T08:52:38;99924.66;;;16.88;81.46
21086;BME280;34247;50.064;19.970;2023-05-25T08:54:37;99916.94;;;16.95;81.29
21086;BME280;34247;50.064;19.970;2023-05-25T08:56:33;99912.03;;;17.00;80.93
21086;BME280;34247;50.064;19.970;2023-05-25T08:58:38;99909.47;;;16.98;80.71
21086;BME280;34247;50.064;19.970;2023-05-25T09:00:36;99907.91;;;16.96;80.48
21086;BME280;34247;50.064;19.970;2023-05-25T09:05:06;99923.53;;;16.91;80.58
21086;BME280;34247;50.064;19.970;2023-05-25T09:07:05;99922.69;;;16.90;80.23
21086;BME280;34247;50.064;19.970;2023-05-25T09:09:03;99909.53;;;16.87;80.56
21086;BME280;34247;50.064;19.970;2023-05-25T09:10:56;99918.44;;;16.88;80.51
21086;BME280;34247;50.064;19.970;2023-05-25T09:12:50;99917.91;;;16.94;80.63
21086;BME280;34247;50.064;19.970;2023-05-25T09:14:46;99915.84;;;16.97;80.59
21086;BME280;34247;50.064;19.970;2023-05-25T09:16:37;99916.31;;;17.02;80.23
21086;BME280;34247;50.064;19.970;2023-05-25T09:18:28;99924.22;;;17.04;80.27
21086;BME280;34247;50.064;19.970;2023-05-25T09:20:19;99923.22;;;17.05;80.14
21086;BME280;34247;50.064;19.970;2023-05-25T09:22:10;99925.19;;;17.03;80.30
21086;BME280;34247;50.064;19.970;2023-05-25T09:24:07;99925.44;;;17.00;80.14
21086;BME280;34247;50.064;19.970;2023-05-25T09:26:00;99923.34;;;17.03;80.06
21086;BME280;34247;50.064;19.970;2023-05-25T09:27:51;99925.56;;;16.98;79.87
21086;BME280;34247;50.064;19.970;2023-05-25T09:30:11;99936.47;;;16.86;80.05
21086;BME280;34247;50.064;19.970;2023-05-25T09:32:16;99935.50;;;16.87;80.34
21086;BME280;34247;50.064;19.970;2023-05-25T09:34:33;99946.97;;;16.89;80.57
21086;BME280;34247;50.064;19.970;2023-05-25T09:36:26;99942.88;;;16.94;80.66
21086;BME280;34247;50.064;19.970;2023-05-25T09:38:23;99938.97;;;16.98;80.40
21086;BME280;34247;50.064;19.970;2023-05-25T09:40:19;99938.84;;;17.00;80.13
21086;BME280;34247;50.064;19.970;2023-05-25T09:42:13;99938.84;;;17.00;80.17
21086;BME280;34247;50.064;19.970;2023-05-25T09:44:06;99935.72;;;16.95;80.16
21086;BME280;34247;50.064;19.970;2023-05-25T09:46:01;99937.66;;;16.93;80.42
21086;BME280;34247;50.064;19.970;2023-05-25T09:47:57;99936.94;;;16.91;80.73
21086;BME280;34247;50.064;19.970;2023-05-25T09:49:51;99944.84;;;16.92;80.69
21086;BME280;34247;50.064;19.970;2023-05-25T09:51:46;99943.78;;;16.95;80.54
21086;BME280;34247;50.064;19.970;2023-05-25T09:53:39;99940.94;;;16.96;80.40
21086;BME280;34247;50.064;19.970;2023-05-25T09:55:32;99926.16;;;17.02;80.43
21086;BME280;34247;50.064;19.970;2023-05-25T09:57:46;99934.94;;;17.04;80.27
21086;BME280;34247;50.064;19.970;2023-05-25T09:59:44;99928.44;;;17.06;80.08
21086;BME280;34247;50.064;19.970;2023-05-25T10:01:37;99925.38;;;17.11;79.94
21086;BME280;34247;50.064;19.970;2023-05-25T10:03:31;99926.44;;;17.20;79.92
21086;BME280;34247;50.064;19.970;2023-05-25T10:05:21;99931.84;;;17.29;79.61